createdAt,value
2022-09-29T00:01:38.439Z,5.50
2022-09-29T00:06:40.801Z,7.10
2022-09-29T00:11:43.937Z,5.50
2022-09-29T00:16:46.682Z,5.55
2022-09-29T00:21:49.181Z,6.53
2022-09-29T00:26:51.877Z,6.00
2022-09-29T00:31:54.637Z,6.25
2022-09-29T00:36:57.054Z,7.05
2022-09-29T00:41:59.556Z,6.53
2022-09-29T00:47:04.757Z,6.38
2022-09-29T00:52:12.367Z,5.75
2022-09-29T00:57:20.075Z,6.03
2022-09-29T01:02:23.674Z,5.70
2022-09-29T01:07:27.531Z,4.82
2022-09-29T01:12:30.361Z,5.47
2022-09-29T01:17:32.886Z,5.88
2022-09-29T01:23:13.078Z,5.68
2022-09-29T01:29:07.613Z,4.82
2022-09-29T01:34:16.287Z,6.03
2022-09-29T01:39:31.638Z,5.70
2022-09-29T01:45:12.766Z,5.80
2022-09-29T01:50:25.836Z,5.30
2022-09-29T01:55:32.141Z,6.18
2022-09-29T02:00:42.031Z,5.45
2022-09-29T02:05:57.158Z,4.97
2022-09-29T02:11:08.332Z,4.45
2022-09-29T02:16:14.509Z,4.72
2022-09-29T02:21:17.118Z,5.35
2022-09-29T02:26:20.577Z,5.10
2022-09-29T02:31:23.936Z,7.10
2022-09-29T02:36:46.750Z,6.00
2022-09-29T02:42:01.932Z,6.15
2022-09-29T02:47:18.808Z,4.60
2022-09-29T02:52:46.825Z,5.57
2022-09-29T02:57:59.698Z,4.75
2022-09-29T03:03:02.088Z,7.47
2022-09-29T03:08:04.516Z,5.60
2022-09-29T03:13:06.910Z,6.05
2022-09-29T03:18:10.251Z,5.68
2022-09-29T03:23:12.766Z,6.40
2022-09-29T03:28:16.580Z,6.15
2022-09-29T03:33:19.079Z,8.73
2022-09-29T03:38:21.477Z,7.13
2022-09-29T03:43:24.026Z,5.63
2022-09-29T03:48:30.314Z,5.40
2022-09-29T03:53:37.670Z,5.78
2022-09-29T03:58:40.068Z,5.63
2022-09-29T04:03:42.460Z,5.40
2022-09-29T04:08:44.865Z,6.15
2022-09-29T04:13:47.709Z,5.50
2022-09-29T04:18:50.038Z,5.55
2022-09-29T04:23:52.489Z,5.18
2022-09-29T04:28:56.306Z,7.90
2022-09-29T04:33:58.679Z,5.68
2022-09-29T04:39:01.171Z,5.10
2022-09-29T04:44:03.580Z,6.43
2022-09-29T04:49:07.185Z,4.13
2022-09-29T04:54:09.618Z,6.03
2022-09-29T04:59:13.096Z,6.63
2022-09-29T05:04:15.725Z,4.80
2022-09-29T05:09:20.752Z,5.60
2022-09-29T05:14:26.518Z,6.18
2022-09-29T05:19:29.999Z,5.35
2022-09-29T05:24:32.410Z,5.60
2022-09-29T05:29:34.929Z,5.83
2022-09-29T05:34:37.289Z,6.27
2022-09-29T05:39:39.892Z,5.23
2022-09-29T05:44:42.287Z,6.70
2022-09-29T05:49:45.566Z,5.72
2022-09-29T05:54:51.149Z,5.25
2022-09-29T05:59:53.629Z,5.65
2022-09-29T06:04:55.997Z,5.18
2022-09-29T06:09:58.482Z,4.93
2022-09-29T06:15:00.780Z,4.30
2022-09-29T06:20:04.965Z,5.40
2022-09-29T06:25:08.000Z,5.85
2022-09-29T06:30:13.064Z,5.78
2022-09-29T06:35:34.189Z,10.23
2022-09-29T06:40:36.749Z,8.40
2022-09-29T06:45:44.580Z,6.33
2022-09-29T06:50:48.407Z,12.60
2022-09-29T06:56:01.962Z,6.40
2022-09-29T07:01:06.226Z,6.75
2022-09-29T07:06:25.948Z,7.63
2022-09-29T07:11:29.059Z,5.67
2022-09-29T07:16:31.557Z,5.00
2022-09-29T07:21:34.907Z,6.35
2022-09-29T07:26:38.124Z,5.90
2022-09-29T07:31:49.514Z,5.85
2022-09-29T07:36:53.674Z,6.20
2022-09-29T07:47:31.341Z,6.13
2022-09-29T07:52:33.683Z,6.95
2022-09-29T07:57:36.071Z,6.57
2022-09-29T08:02:38.501Z,6.13
2022-09-29T08:07:40.915Z,5.97
2022-09-29T08:12:44.438Z,7.45
2022-09-29T08:17:53.877Z,5.75
2022-09-29T08:23:05.254Z,5.90
2022-09-29T08:28:09.010Z,5.13
2022-09-29T08:33:14.780Z,5.95
2022-09-29T08:38:17.325Z,7.35
2022-09-29T08:43:36.499Z,5.45
2022-09-29T08:48:55.686Z,9.52
2022-09-29T08:54:07.088Z,5.10
2022-09-29T08:59:11.536Z,5.50
2022-09-29T09:04:39.906Z,4.57
2022-09-29T09:10:09.298Z,5.70
2022-09-29T09:15:24.327Z,5.13
2022-09-29T09:20:36.749Z,6.80
2022-09-29T09:25:46.410Z,4.75
2022-09-29T09:31:03.653Z,4.97
2022-09-29T09:36:33.792Z,6.20
2022-09-29T09:41:39.251Z,5.30
2022-09-29T09:46:56.383Z,5.20
2022-09-29T09:52:10.372Z,5.22
2022-09-29T09:57:47.276Z,5.03
2022-09-29T10:02:55.775Z,4.90
2022-09-29T10:07:58.616Z,5.18
2022-09-29T10:13:06.188Z,5.00
2022-09-29T10:18:18.161Z,4.45
2022-09-29T10:23:26.348Z,5.22
2022-09-29T10:28:37.953Z,4.13
2022-09-29T10:33:48.994Z,4.07
2022-09-29T10:38:53.172Z,4.35
2022-09-29T10:43:55.534Z,4.50
2022-09-29T10:49:19.060Z,4.75
2022-09-29T10:54:25.744Z,4.40
2022-09-29T10:59:28.611Z,4.75
2022-09-29T11:04:36.471Z,4.72
2022-09-29T11:09:44.562Z,5.18
2022-09-29T11:14:47.171Z,4.30
2022-09-29T11:19:51.480Z,3.83
2022-09-29T11:25:24.075Z,3.78
2022-09-29T11:30:45.076Z,4.80
2022-09-29T11:36:12.229Z,16.80
2022-09-29T11:41:32.698Z,9.10
2022-09-29T11:46:58.106Z,5.07
2022-09-29T11:52:18.131Z,4.50
2022-09-29T11:57:38.547Z,5.07
2022-09-29T12:03:15.218Z,7.50
2022-09-29T12:08:41.693Z,4.15
2022-09-29T12:13:56.324Z,5.93
2022-09-29T12:19:11.506Z,4.63
2022-09-29T12:24:21.272Z,4.43
2022-09-29T12:29:48.511Z,4.40
2022-09-29T12:34:59.670Z,3.43
2022-09-29T12:40:14.714Z,6.03
2022-09-29T12:45:47.048Z,4.32
2022-09-29T12:51:16.902Z,4.50
2022-09-29T12:56:25.531Z,6.25
2022-09-29T13:01:32.316Z,3.92
2022-09-29T13:07:12.144Z,4.72
2022-09-29T13:12:40.471Z,5.38
2022-09-29T13:17:54.316Z,4.82
2022-09-29T13:23:14.151Z,4.80
2022-09-29T13:28:41.719Z,4.57
2022-09-29T13:33:54.097Z,4.75
2022-09-29T13:38:58.855Z,5.20
2022-09-29T13:44:04.438Z,6.43
2022-09-29T13:49:12.638Z,6.43
2022-09-29T13:54:43.102Z,5.80
2022-09-29T13:59:55.762Z,5.07
2022-09-29T14:05:01.324Z,5.03
2022-09-29T14:10:24.128Z,4.30
2022-09-29T14:15:28.894Z,4.07
2022-09-29T14:20:38.189Z,4.35
2022-09-29T14:25:43.420Z,6.80
2022-09-29T14:30:52.370Z,7.90
2022-09-29T14:36:00.875Z,36.07
2022-09-29T14:41:25.184Z,36.00
2022-09-29T14:47:11.285Z,35.55
2022-09-29T14:52:23.283Z,35.08
2022-09-29T14:58:05.269Z,26.90
2022-09-29T15:03:26.631Z,25.30
2022-09-29T15:08:36.756Z,22.33
2022-09-29T15:13:39.162Z,28.48
2022-09-29T15:19:23.194Z,23.88
2022-09-29T15:24:52.476Z,17.98
2022-09-29T15:29:57.154Z,20.83
2022-09-29T15:35:06.244Z,15.68
2022-09-29T15:40:15.262Z,22.25
2022-09-29T15:45:28.266Z,19.05
2022-09-29T15:50:32.111Z,13.88
2022-09-29T15:55:35.091Z,15.45
2022-09-29T16:00:37.378Z,16.98
2022-09-29T16:05:45.494Z,13.60
2022-09-29T16:10:55.222Z,11.98
2022-09-29T16:16:02.701Z,12.77
2022-09-29T16:21:12.685Z,16.40
2022-09-29T16:26:54.140Z,13.10
2022-09-29T16:31:58.287Z,13.27
2022-09-29T16:37:15.179Z,13.43
2022-09-29T16:42:25.586Z,11.77
2022-09-29T16:47:33.021Z,14.43
2022-09-29T16:52:46.238Z,16.38
2022-09-29T16:57:52.031Z,29.77
2022-09-29T17:02:58.057Z,40.80
2022-09-29T17:13:16.769Z,36.17
2022-09-29T17:18:20.696Z,38.97
2022-09-29T17:23:24.592Z,71.87
2022-09-29T17:28:27.885Z,85.13
2022-09-29T17:33:31.248Z,78.20
2022-09-29T17:38:33.645Z,84.73
2022-09-29T17:43:36.248Z,84.47
2022-09-29T17:48:38.678Z,81.17
2022-09-29T17:53:41.638Z,65.73
2022-09-29T17:58:44.105Z,53.00
2022-09-29T18:03:47.022Z,57.77
2022-09-29T18:08:54.144Z,56.20
2022-09-29T18:13:56.715Z,56.03
2022-09-29T18:18:59.269Z,64.37
2022-09-29T18:24:03.691Z,71.37
2022-09-29T18:29:15.752Z,70.87
2022-09-29T18:34:20.881Z,69.47
2022-09-29T18:39:23.469Z,43.97
2022-09-29T18:44:29.396Z,38.63
2022-09-29T18:49:31.879Z,37.77
2022-09-29T18:54:34.490Z,38.20
2022-09-29T18:59:37.047Z,36.60
2022-09-29T19:04:39.790Z,34.90
2022-09-29T19:09:42.387Z,30.50
2022-09-29T19:14:45.894Z,31.53
2022-09-29T19:19:49.009Z,30.20
2022-09-29T19:24:55.037Z,27.35
2022-09-29T19:30:02.260Z,30.17
2022-09-29T19:35:08.786Z,30.50
2022-09-29T19:40:19.800Z,30.38
2022-09-29T19:45:22.357Z,29.10
2022-09-29T19:50:43.941Z,28.00
2022-09-29T19:55:46.346Z,30.80
2022-09-29T20:00:48.777Z,26.40
2022-09-29T20:05:51.417Z,28.50
2022-09-29T20:10:53.805Z,26.83
2022-09-29T20:16:25.257Z,26.20
2022-09-29T20:21:27.934Z,28.30
2022-09-29T20:26:33.350Z,24.30
2022-09-29T20:31:38.994Z,29.15
2022-09-29T20:36:41.528Z,28.90
2022-09-29T20:41:44.380Z,24.45
2022-09-29T20:46:46.774Z,28.73
2022-09-29T20:51:49.259Z,24.50
2022-09-29T20:56:54.523Z,25.83
2022-09-29T21:01:57.199Z,29.85
2022-09-29T21:06:59.674Z,28.48
2022-09-29T21:12:03.428Z,27.87
2022-09-29T21:17:05.918Z,23.77
2022-09-29T21:22:09.049Z,27.03
2022-09-29T21:27:11.514Z,26.92
2022-09-29T21:32:14.030Z,24.48
2022-09-29T21:37:17.304Z,25.27
2022-09-29T21:42:19.733Z,27.13
2022-09-29T21:47:42.061Z,28.83
2022-09-29T21:52:44.448Z,24.13
2022-09-29T21:57:46.852Z,27.92
2022-09-29T22:02:49.301Z,30.20
2022-09-29T22:07:51.830Z,29.25
2022-09-29T22:12:54.371Z,30.38
2022-09-29T22:17:57.017Z,29.35
2022-09-29T22:22:59.420Z,31.80
2022-09-29T22:28:01.986Z,30.23
2022-09-29T22:33:04.507Z,33.63
2022-09-29T22:38:08.305Z,28.45
2022-09-29T22:43:10.700Z,28.48
2022-09-29T22:48:13.420Z,28.48
2022-09-29T22:53:16.327Z,26.67
2022-09-29T22:58:18.856Z,26.88
2022-09-29T23:03:21.536Z,28.52
2022-09-29T23:08:24.986Z,24.48
2022-09-29T23:13:27.762Z,27.83
2022-09-29T23:18:31.376Z,24.45
2022-09-29T23:23:33.815Z,25.77
2022-09-29T23:28:36.644Z,26.50
2022-09-29T23:33:39.182Z,26.27
2022-09-29T23:39:02.290Z,25.73
2022-09-29T23:44:05.555Z,24.95
2022-09-29T23:49:11.331Z,24.05
2022-09-29T23:54:16.219Z,26.88
2022-09-29T23:59:18.757Z,22.20
